createdAt,value
2019-04-03T00:00:30.430Z,23.50
2019-04-03T00:01:09.430Z,20.90
2019-04-03T00:02:09.416Z,24.40
2019-04-03T00:03:09.409Z,24.20
2019-04-03T00:04:09.408Z,23.00
2019-04-03T00:05:09.399Z,22.60
2019-04-03T00:06:30.407Z,23.70
2019-04-03T00:07:09.390Z,21.70
2019-04-03T00:08:09.408Z,22.70
2019-04-03T00:09:09.381Z,21.00
2019-04-03T00:10:09.436Z,22.70
2019-04-03T00:11:09.690Z,24.50
2019-04-03T00:12:30.371Z,23.90
2019-04-03T00:13:11.122Z,23.20
2019-04-03T00:14:12.192Z,23.70
2019-04-03T00:15:09.357Z,26.70
2019-04-03T00:16:09.352Z,25.50
2019-04-03T00:17:09.341Z,22.70
2019-04-03T00:18:30.496Z,23.90
2019-04-03T00:19:09.337Z,25.00
2019-04-03T00:20:09.322Z,22.10
2019-04-03T00:21:09.353Z,24.20
2019-04-03T00:22:09.309Z,24.80
2019-04-03T00:23:09.305Z,21.00
2019-04-03T00:24:30.309Z,21.50
2019-04-03T00:25:09.295Z,24.90
2019-04-03T00:26:09.288Z,23.70
2019-04-03T00:27:09.283Z,21.30
2019-04-03T00:28:09.277Z,25.70
2019-04-03T00:29:09.274Z,24.50
2019-04-03T00:30:30.296Z,23.60
2019-04-03T00:31:09.264Z,23.60
2019-04-03T00:32:09.264Z,21.50
2019-04-03T00:33:09.252Z,23.20
2019-04-03T00:34:09.248Z,21.60
2019-04-03T00:35:09.243Z,20.30
2019-04-03T00:36:30.244Z,20.40
2019-04-03T00:37:09.283Z,22.20
2019-04-03T00:38:09.282Z,21.10
2019-04-03T00:39:09.228Z,22.10
2019-04-03T00:40:09.225Z,24.90
2019-04-03T00:41:09.213Z,21.50
2019-04-03T00:42:30.250Z,22.70
2019-04-03T00:43:09.298Z,22.20
2019-04-03T00:44:09.196Z,21.90
2019-04-03T00:45:09.198Z,22.70
2019-04-03T00:46:09.186Z,22.20
2019-04-03T00:47:09.181Z,24.10
2019-04-03T00:48:30.183Z,23.30
2019-04-03T00:49:09.172Z,22.90
2019-04-03T00:50:09.190Z,24.00
2019-04-03T00:51:09.160Z,21.60
2019-04-03T00:52:09.158Z,23.10
2019-04-03T00:53:09.149Z,24.10
2019-04-03T00:54:31.197Z,25.10
2019-04-03T00:55:09.138Z,24.20
2019-04-03T00:56:09.133Z,21.10
2019-04-03T00:57:09.130Z,24.80
2019-04-03T00:58:09.216Z,22.40
2019-04-03T00:59:09.118Z,22.50
2019-04-03T01:00:30.124Z,25.50
2019-04-03T01:01:09.223Z,27.00
2019-04-03T01:02:09.102Z,24.80
2019-04-03T01:03:09.264Z,24.40
2019-04-03T01:04:09.092Z,25.60
2019-04-03T01:05:09.085Z,23.50
2019-04-03T01:06:30.183Z,26.30
2019-04-03T01:07:09.079Z,25.90
2019-04-03T01:08:09.072Z,25.70
2019-04-03T01:09:09.066Z,26.60
2019-04-03T01:10:09.065Z,23.90
2019-04-03T01:11:09.078Z,27.90
2019-04-03T01:12:31.233Z,28.10
2019-04-03T01:13:09.086Z,24.60
2019-04-03T01:14:09.039Z,25.90
2019-04-03T01:15:09.070Z,26.20
2019-04-03T01:16:09.027Z,26.40
2019-04-03T01:17:09.021Z,26.80
2019-04-03T01:18:30.032Z,28.30
2019-04-03T01:19:09.019Z,35.70
2019-04-03T01:20:09.018Z,32.50
2019-04-03T01:21:09.003Z,32.60
2019-04-03T01:22:09.003Z,32.10
2019-04-03T01:23:08.992Z,32.80
2019-04-03T01:24:29.993Z,32.60
2019-04-03T01:25:09.443Z,32.80
2019-04-03T01:26:10.213Z,36.40
2019-04-03T01:27:11.150Z,36.70
2019-04-03T01:28:09.787Z,34.30
2019-04-03T01:29:08.960Z,35.00
2019-04-03T01:30:29.965Z,32.20
2019-04-03T01:31:09.007Z,37.90
2019-04-03T01:32:09.066Z,35.40
2019-04-03T01:33:09.027Z,31.80
2019-04-03T01:34:08.938Z,32.80
2019-04-03T01:35:09.437Z,31.60
2019-04-03T01:36:29.932Z,32.10
2019-04-03T01:37:08.962Z,34.00
2019-04-03T01:38:08.915Z,30.90
2019-04-03T01:39:08.908Z,31.60
2019-04-03T01:40:08.903Z,32.00
2019-04-03T01:41:08.898Z,28.10
2019-04-03T01:42:29.898Z,30.70
2019-04-03T01:43:08.888Z,29.60
2019-04-03T01:44:08.881Z,30.40
2019-04-03T01:45:08.879Z,30.00
2019-04-03T01:46:08.873Z,27.90
2019-04-03T01:47:08.868Z,28.60
2019-04-03T01:48:29.871Z,30.40
2019-04-03T01:49:08.853Z,31.70
2019-04-03T01:50:08.852Z,28.10
2019-04-03T01:51:08.847Z,29.70
2019-04-03T01:52:08.838Z,28.60
2019-04-03T01:53:08.835Z,28.90
2019-04-03T01:54:29.831Z,27.90
2019-04-03T01:55:08.823Z,29.80
2019-04-03T01:56:08.817Z,29.80
2019-04-03T01:57:08.837Z,28.60
2019-04-03T01:58:08.818Z,29.30
2019-04-03T01:59:08.811Z,26.30
2019-04-03T02:00:29.806Z,29.80
2019-04-03T02:01:08.925Z,31.70
2019-04-03T02:02:09.099Z,30.20
2019-04-03T02:03:10.295Z,31.80
2019-04-03T02:04:08.793Z,28.90
2019-04-03T02:05:08.876Z,27.80
2019-04-03T02:06:29.770Z,32.60
2019-04-03T02:07:08.762Z,28.60
2019-04-03T02:08:08.764Z,30.40
2019-04-03T02:09:08.930Z,29.00
2019-04-03T02:10:08.852Z,30.40
2019-04-03T02:11:08.743Z,26.50
2019-04-03T02:12:29.753Z,25.70
2019-04-03T02:13:08.733Z,28.80
2019-04-03T02:14:09.069Z,29.90
2019-04-03T02:15:08.718Z,27.50
2019-04-03T02:16:08.712Z,28.70
2019-04-03T02:17:08.706Z,27.80
2019-04-03T02:18:29.710Z,30.00
2019-04-03T02:19:08.701Z,27.30
2019-04-03T02:20:08.688Z,29.60
2019-04-03T02:21:08.685Z,28.70
2019-04-03T02:22:08.725Z,26.30
2019-04-03T02:23:08.681Z,27.00
2019-04-03T02:24:31.452Z,27.60
2019-04-03T02:25:08.663Z,29.70
2019-04-03T02:26:08.661Z,28.10
2019-04-03T02:27:08.671Z,31.50
2019-04-03T02:28:08.670Z,28.20
2019-04-03T02:29:09.225Z,28.40
2019-04-03T02:30:29.642Z,29.50
2019-04-03T02:31:08.631Z,27.50
2019-04-03T02:32:08.636Z,27.60
2019-04-03T02:33:08.619Z,30.30
2019-04-03T02:34:08.737Z,27.50
2019-04-03T02:35:08.627Z,29.90
2019-04-03T02:36:29.622Z,28.20
2019-04-03T02:37:08.723Z,27.30
2019-04-03T02:38:08.596Z,28.00
2019-04-03T02:39:08.602Z,31.90
2019-04-03T02:40:08.614Z,26.20
2019-04-03T02:41:08.809Z,28.70
2019-04-03T02:42:29.587Z,29.70
2019-04-03T02:43:08.570Z,28.30
2019-04-03T02:44:08.593Z,29.50
2019-04-03T02:45:08.558Z,27.50
2019-04-03T02:46:08.551Z,28.20
2019-04-03T02:47:08.589Z,27.50
2019-04-03T02:48:29.546Z,28.30
2019-04-03T02:49:10.414Z,28.80
2019-04-03T02:50:08.529Z,30.50
2019-04-03T02:51:08.537Z,29.00
2019-04-03T02:52:08.531Z,29.10
2019-04-03T02:53:08.532Z,28.30
2019-04-03T02:54:29.793Z,25.90
2019-04-03T02:55:09.271Z,26.70
2019-04-03T02:56:11.870Z,27.40
2019-04-03T02:57:08.489Z,28.30
2019-04-03T02:58:08.490Z,26.70
2019-04-03T02:59:08.744Z,28.70
2019-04-03T03:00:33.067Z,29.00
2019-04-03T03:01:08.612Z,27.50
2019-04-03T03:02:11.394Z,28.50
2019-04-03T03:03:08.497Z,27.00
2019-04-03T03:04:08.512Z,27.30
2019-04-03T03:05:08.460Z,28.10
2019-04-03T03:06:31.518Z,28.50
2019-04-03T03:07:08.438Z,27.60
2019-04-03T03:08:09.524Z,29.20
2019-04-03T03:09:08.610Z,28.80
2019-04-03T03:10:08.443Z,27.80
2019-04-03T03:11:08.417Z,29.30
2019-04-03T03:12:29.413Z,28.00
2019-04-03T03:13:08.405Z,29.10
2019-04-03T03:14:08.414Z,27.90
2019-04-03T03:15:10.953Z,25.90
2019-04-03T03:16:08.549Z,26.50
2019-04-03T03:17:08.385Z,27.70
2019-04-03T03:19:41.585Z,25.80
2019-04-03T03:21:55.223Z,29.30
2019-04-03T03:24:08.944Z,30.70
2019-04-03T03:26:22.717Z,30.00
2019-04-03T03:28:36.403Z,30.20
2019-04-03T03:30:57.792Z,31.10
2019-04-03T03:33:24.228Z,29.90
2019-04-03T03:35:26.574Z,33.20
2019-04-03T03:37:34.395Z,34.10
2019-04-03T03:39:45.048Z,33.90
2019-04-03T03:41:59.236Z,33.00
2019-04-03T03:44:12.641Z,33.70
2019-04-03T03:46:28.214Z,30.40
2019-04-03T03:47:26.175Z,33.30
2019-04-03T03:49:20.659Z,35.60
2019-04-03T03:50:24.310Z,35.50
2019-04-03T03:52:14.904Z,36.70
2019-04-03T03:53:14.898Z,34.00
2019-04-03T03:55:09.277Z,37.30
2019-04-03T03:56:09.617Z,39.40
2019-04-03T03:58:03.907Z,35.10
2019-04-03T03:59:03.636Z,36.60
2019-04-03T04:01:00.287Z,36.10
2019-04-03T04:01:58.196Z,34.90
2019-04-03T04:03:52.378Z,34.50
2019-04-03T04:04:52.464Z,33.30
2019-04-03T04:06:46.841Z,33.50
2019-04-03T04:07:46.701Z,32.30
2019-04-03T04:09:41.085Z,34.30
2019-04-03T04:10:41.131Z,32.20
2019-04-03T04:12:39.750Z,30.00
2019-04-03T04:13:35.872Z,30.40
2019-04-03T04:15:31.086Z,28.70
2019-04-03T04:16:29.786Z,29.60
2019-04-03T04:18:24.957Z,31.10
2019-04-03T04:19:24.122Z,31.40
2019-04-03T04:21:18.507Z,30.80
2019-04-03T04:22:19.098Z,32.50
2019-04-03T04:24:12.972Z,31.10
2019-04-03T04:25:13.107Z,32.30
2019-04-03T04:27:07.435Z,34.30
2019-04-03T04:28:09.213Z,32.30
2019-04-03T04:30:01.823Z,31.50
2019-04-03T04:31:01.786Z,30.90
2019-04-03T04:32:55.932Z,32.10
2019-04-03T04:33:56.095Z,30.60
2019-04-03T04:35:52.421Z,32.50
2019-04-03T04:36:50.283Z,31.30
2019-04-03T04:38:44.653Z,34.20
2019-04-03T04:39:44.645Z,31.90
2019-04-03T04:41:39.234Z,33.40
2019-04-03T04:42:39.005Z,33.20
2019-04-03T04:44:33.463Z,31.40
2019-04-03T04:45:33.880Z,32.10
2019-04-03T04:47:27.905Z,36.50
2019-04-03T04:48:27.727Z,36.50
2019-04-03T04:50:24.244Z,32.40
2019-04-03T04:51:22.087Z,33.60
2019-04-03T04:53:16.473Z,34.20
2019-04-03T04:54:16.437Z,36.70
2019-04-03T04:56:10.819Z,34.50
2019-04-03T04:57:10.793Z,35.70
2019-04-03T04:59:05.192Z,35.00
2019-04-03T05:00:05.342Z,34.00
2019-04-03T05:01:59.523Z,34.90
2019-04-03T05:03:01.008Z,34.30
2019-04-03T05:04:55.807Z,35.60
2019-04-03T05:05:53.865Z,34.50
2019-04-03T05:07:48.231Z,35.40
2019-04-03T05:08:48.225Z,32.50
2019-04-03T05:10:42.789Z,33.70
2019-04-03T05:11:42.590Z,34.80
2019-04-03T05:13:36.947Z,35.60
2019-04-03T05:14:36.937Z,33.00
2019-04-03T05:16:31.335Z,34.30
2019-04-03T05:17:31.291Z,32.40
2019-04-03T05:19:25.669Z,31.20
2019-04-03T05:20:25.647Z,33.40
2019-04-03T05:22:20.062Z,35.90
2019-04-03T05:23:20.005Z,31.50
2019-04-03T05:25:14.596Z,30.60
2019-04-03T05:26:14.457Z,31.20
2019-04-03T05:28:08.767Z,31.40
2019-04-03T05:29:08.729Z,31.70
2019-04-03T05:31:03.287Z,36.00
2019-04-03T05:32:03.124Z,33.20
2019-04-03T05:33:57.592Z,33.80
2019-04-03T05:34:57.433Z,35.20
2019-04-03T05:36:51.795Z,31.60
2019-04-03T05:37:51.786Z,29.20
2019-04-03T05:39:46.328Z,32.70
2019-04-03T05:40:46.165Z,31.20
2019-04-03T05:42:40.626Z,33.20
2019-04-03T05:43:40.549Z,32.20
2019-04-03T05:45:35.625Z,31.40
2019-04-03T05:46:36.515Z,34.00
2019-04-03T05:48:29.266Z,33.00
2019-04-03T05:49:29.316Z,31.90
2019-04-03T05:51:29.766Z,35.70
2019-04-03T05:52:28.428Z,34.40
2019-04-03T05:54:22.811Z,32.10
2019-04-03T05:55:22.841Z,33.30
2019-04-03T05:57:17.334Z,33.40
2019-04-03T05:58:17.354Z,32.20
2019-04-03T06:00:11.520Z,32.50
2019-04-03T06:01:11.889Z,33.30
2019-04-03T06:03:05.910Z,36.50
2019-04-03T06:04:05.870Z,37.90
2019-04-03T06:06:00.234Z,38.70
2019-04-03T06:07:00.231Z,40.30
2019-04-03T06:08:56.474Z,41.10
2019-04-03T06:09:58.282Z,41.20
2019-04-03T06:11:51.812Z,43.50
2019-04-03T06:12:49.195Z,41.70
2019-04-03T06:14:43.493Z,41.80
2019-04-03T06:15:43.302Z,40.10
2019-04-03T06:17:37.905Z,39.40
2019-04-03T06:18:37.660Z,38.80
2019-04-03T06:20:32.032Z,34.80
2019-04-03T06:21:32.028Z,36.10
2019-04-03T06:23:26.405Z,36.30
2019-04-03T06:24:26.374Z,36.10
2019-04-03T06:26:20.728Z,34.60
2019-04-03T06:27:20.725Z,30.70
2019-04-03T06:29:15.170Z,31.00
2019-04-03T06:30:15.204Z,33.40
2019-04-03T06:32:13.984Z,35.30
2019-04-03T06:33:13.975Z,31.60
2019-04-03T06:35:08.658Z,27.20
2019-04-03T06:36:08.554Z,28.60
2019-04-03T06:38:02.813Z,30.80
2019-04-03T06:39:02.736Z,29.20
2019-04-03T06:40:57.210Z,28.80
2019-04-03T06:41:57.111Z,29.20
2019-04-03T06:43:54.072Z,30.50
2019-04-03T06:44:53.856Z,26.80
2019-04-03T06:46:45.957Z,28.80
2019-04-03T06:47:45.822Z,26.50
2019-04-03T06:49:41.055Z,29.20
2019-04-03T06:50:40.216Z,28.90
2019-04-03T06:52:34.602Z,26.60
2019-04-03T06:53:34.778Z,29.50
2019-04-03T06:55:29.033Z,24.80
2019-04-03T06:56:28.922Z,24.80
2019-04-03T06:58:23.334Z,31.70
2019-04-03T06:59:23.285Z,23.40
2019-04-03T07:01:18.079Z,28.90
2019-04-03T07:02:18.165Z,26.30
2019-04-03T07:04:12.399Z,25.90
2019-04-03T07:05:12.014Z,21.60
2019-04-03T07:07:06.362Z,24.60
2019-04-03T07:08:06.442Z,25.20
2019-04-03T07:10:02.378Z,24.80
2019-04-03T07:11:00.751Z,26.00
2019-04-03T07:12:55.110Z,24.40
2019-04-03T07:13:55.125Z,27.30
2019-04-03T07:15:49.557Z,30.00
2019-04-03T07:16:49.454Z,28.10
2019-04-03T07:18:43.831Z,27.00
2019-04-03T07:19:43.821Z,30.60
2019-04-03T07:21:38.218Z,28.40
2019-04-03T07:22:38.178Z,27.30
2019-04-03T07:24:32.625Z,25.90
2019-04-03T07:25:33.936Z,27.00
2019-04-03T07:27:26.960Z,24.70
2019-04-03T07:28:26.902Z,23.80
2019-04-03T07:30:21.774Z,25.80
2019-04-03T07:31:23.291Z,25.90
2019-04-03T07:33:15.667Z,30.00
2019-04-03T07:34:15.626Z,26.50
2019-04-03T07:36:11.562Z,25.60
2019-04-03T07:37:10.009Z,25.50
2019-04-03T07:39:04.397Z,25.90
2019-04-03T07:40:04.498Z,26.20
2019-04-03T07:41:58.737Z,26.60
2019-04-03T07:42:58.725Z,26.10
2019-04-03T07:44:53.130Z,31.00
2019-04-03T07:45:53.189Z,28.00
2019-04-03T07:47:47.539Z,27.20
2019-04-03T07:48:47.459Z,28.50
2019-04-03T07:50:42.306Z,27.90
2019-04-03T07:51:43.289Z,28.00
2019-04-03T07:53:36.179Z,27.80
2019-04-03T07:54:36.180Z,27.30
2019-04-03T07:56:30.613Z,28.30
2019-04-03T07:57:30.542Z,27.80
2019-04-03T07:58:31.886Z,28.30
2019-04-03T07:59:32.075Z,26.50
2019-04-03T08:00:31.078Z,30.40
2019-04-03T08:01:30.901Z,29.00
2019-04-03T08:02:33.483Z,26.10
2019-04-03T08:03:30.515Z,31.10
2019-04-03T08:04:30.516Z,32.50
2019-04-03T08:05:31.589Z,32.50
2019-04-03T08:06:30.502Z,27.10
2019-04-03T08:07:30.498Z,24.30
2019-04-03T08:08:30.535Z,27.10
2019-04-03T08:09:30.543Z,27.00
2019-04-03T08:10:30.660Z,28.50
2019-04-03T08:11:30.838Z,29.40
2019-04-03T08:12:30.483Z,27.50
2019-04-03T08:13:30.478Z,26.80
2019-04-03T08:14:30.469Z,29.40
2019-04-03T08:15:30.846Z,36.50
2019-04-03T08:16:30.722Z,29.00
2019-04-03T08:17:30.454Z,41.90
2019-04-03T08:18:30.451Z,28.80
2019-04-03T08:19:30.450Z,34.00
2019-04-03T08:20:31.471Z,38.10
2019-04-03T08:21:30.979Z,53.10
2019-04-03T08:22:32.615Z,32.90
2019-04-03T08:23:30.478Z,34.10
2019-04-03T08:24:30.432Z,33.00
2019-04-03T08:25:30.430Z,30.50
2019-04-03T08:26:30.421Z,44.00
2019-04-03T08:27:30.415Z,30.00
2019-04-03T08:28:30.820Z,32.40
2019-04-03T08:29:32.683Z,32.30
2019-04-03T08:30:30.565Z,32.10
2019-04-03T08:31:30.399Z,27.50
2019-04-03T08:32:30.391Z,27.20
2019-04-03T08:33:32.817Z,28.70
2019-04-03T08:34:31.967Z,30.00
2019-04-03T08:35:30.384Z,27.20
2019-04-03T08:36:30.389Z,31.00
2019-04-03T08:37:32.275Z,26.20
2019-04-03T08:38:30.704Z,30.50
2019-04-03T08:39:30.737Z,29.40
2019-04-03T08:40:31.196Z,36.00
2019-04-03T08:41:30.369Z,27.90
2019-04-03T08:42:32.395Z,29.70
2019-04-03T08:43:32.669Z,29.80
2019-04-03T08:44:30.477Z,27.20
2019-04-03T08:45:30.346Z,30.30
2019-04-03T08:46:30.533Z,26.50
2019-04-03T08:47:30.334Z,27.10
2019-04-03T08:48:30.609Z,26.00
2019-04-03T08:49:30.503Z,25.90
2019-04-03T08:50:30.337Z,25.70
2019-04-03T08:51:30.362Z,27.50
2019-04-03T08:52:30.313Z,28.90
2019-04-03T08:53:30.316Z,28.10
2019-04-03T08:54:30.313Z,33.80
2019-04-03T08:55:30.307Z,32.30
2019-04-03T08:56:30.568Z,30.30
2019-04-03T08:57:30.538Z,34.50
2019-04-03T08:58:30.289Z,30.50
2019-04-03T08:59:30.568Z,40.90
2019-04-03T09:00:32.115Z,33.90
2019-04-03T09:01:30.326Z,37.60
2019-04-03T09:02:30.275Z,45.70
2019-04-03T09:03:30.278Z,60.70
2019-04-03T09:04:30.357Z,65.70
2019-04-03T09:05:30.623Z,68.10
2019-04-03T09:06:30.386Z,64.70
2019-04-03T09:07:30.255Z,55.80
2019-04-03T09:08:30.254Z,46.40
2019-04-03T09:09:30.575Z,55.10
2019-04-03T09:10:32.682Z,74.40
2019-04-03T09:11:30.245Z,98.80
2019-04-03T09:12:30.241Z,90.10
2019-04-03T09:13:30.293Z,87.80
2019-04-03T09:14:30.379Z,78.30
2019-04-03T09:15:30.365Z,84.70
2019-04-03T09:16:31.193Z,104.90
2019-04-03T09:17:30.223Z,112.30
2019-04-03T09:18:30.941Z,108.40
2019-04-03T09:19:30.320Z,107.00
2019-04-03T09:20:30.225Z,84.10
2019-04-03T09:21:30.209Z,83.10
2019-04-03T09:22:30.202Z,122.60
2019-04-03T09:23:30.434Z,112.60
2019-04-03T09:24:30.633Z,114.00
2019-04-03T09:25:31.598Z,112.00
2019-04-03T09:26:33.002Z,119.60
2019-04-03T09:27:30.204Z,130.60
2019-04-03T09:28:30.188Z,126.70
2019-04-03T09:29:30.199Z,122.20
2019-04-03T09:30:30.180Z,125.00
2019-04-03T09:31:30.177Z,113.30
2019-04-03T09:32:30.174Z,118.00
2019-04-03T09:33:30.348Z,89.20
2019-04-03T09:34:32.248Z,68.00
2019-04-03T09:35:32.176Z,66.60
2019-04-03T09:36:30.272Z,66.00
2019-04-03T09:37:30.166Z,62.40
2019-04-03T09:38:30.160Z,61.40
2019-04-03T09:39:30.184Z,49.30
2019-04-03T09:40:30.435Z,50.90
2019-04-03T09:41:30.186Z,73.40
2019-04-03T09:42:30.145Z,76.40
2019-04-03T09:43:30.143Z,87.30
2019-04-03T09:44:30.168Z,94.40
2019-04-03T09:45:30.195Z,103.40
2019-04-03T09:46:31.491Z,103.10
2019-04-03T09:47:31.688Z,106.40
2019-04-03T09:48:30.146Z,108.10
2019-04-03T09:49:30.195Z,108.00
2019-04-03T09:50:30.208Z,108.40
2019-04-03T09:51:30.521Z,95.40
2019-04-03T09:52:39.439Z,101.10
2019-04-03T09:53:30.118Z,98.70
2019-04-03T09:54:30.120Z,104.70
2019-04-03T09:55:35.777Z,103.00
2019-04-03T09:56:30.127Z,95.90
2019-04-03T09:57:31.296Z,94.50
2019-04-03T09:58:30.112Z,74.50
2019-04-03T09:59:30.108Z,61.30
2019-04-03T10:00:30.113Z,57.40
2019-04-03T10:01:30.112Z,51.80
2019-04-03T10:02:30.101Z,49.20
2019-04-03T10:03:31.263Z,47.80
2019-04-03T10:04:30.096Z,46.30
2019-04-03T10:05:30.095Z,43.10
2019-04-03T10:06:31.426Z,38.80
2019-04-03T10:07:31.875Z,44.50
2019-04-03T10:08:30.333Z,39.00
2019-04-03T10:09:30.350Z,41.20
2019-04-03T10:10:30.335Z,35.40
2019-04-03T10:11:30.138Z,36.90
2019-04-03T10:12:32.213Z,35.00
2019-04-03T10:13:30.239Z,34.50
2019-04-03T10:14:30.080Z,34.00
2019-04-03T10:15:31.219Z,36.90
2019-04-03T10:16:30.078Z,35.00
2019-04-03T10:17:30.076Z,33.60
2019-04-03T10:18:30.492Z,30.90
2019-04-03T10:19:30.229Z,32.40
2019-04-03T10:20:30.196Z,31.60
2019-04-03T10:21:32.859Z,29.30
2019-04-03T10:22:30.068Z,29.80
2019-04-03T10:23:30.063Z,27.90
2019-04-03T10:24:31.055Z,57.00
2019-04-03T10:25:30.062Z,21.40
2019-04-03T10:26:31.654Z,25.30
2019-04-03T10:27:30.272Z,26.90
2019-04-03T10:28:30.235Z,14.80
2019-04-03T10:29:30.059Z,41.50
2019-04-03T10:30:30.053Z,10.10
2019-04-03T10:31:30.349Z,9.80
2019-04-03T10:32:30.209Z,11.10
2019-04-03T10:33:31.568Z,8.60
2019-04-03T10:34:30.343Z,9.30
2019-04-03T10:35:30.053Z,7.70
2019-04-03T10:36:30.045Z,10.10
2019-04-03T10:37:30.046Z,7.50
2019-04-03T10:38:30.045Z,9.40
2019-04-03T10:39:30.187Z,7.70
2019-04-03T10:40:30.039Z,15.10
2019-04-03T10:41:30.054Z,12.30
2019-04-03T10:42:31.267Z,9.00
2019-04-03T10:43:30.415Z,9.40
2019-04-03T10:44:30.037Z,13.20
2019-04-03T10:45:30.034Z,10.10
2019-04-03T10:46:30.030Z,17.60
2019-04-03T10:47:40.054Z,12.70
2019-04-03T10:48:30.044Z,9.00
2019-04-03T10:49:32.055Z,10.70
2019-04-03T10:50:30.026Z,10.70
2019-04-03T10:51:31.705Z,10.40
2019-04-03T10:52:30.540Z,17.30
2019-04-03T10:53:30.024Z,17.40
2019-04-03T10:54:30.514Z,14.50
2019-04-03T10:55:30.421Z,10.50
2019-04-03T10:56:31.214Z,11.70
2019-04-03T10:57:31.763Z,26.60
2019-04-03T10:58:30.139Z,15.10
2019-04-03T10:59:30.020Z,10.30
2019-04-03T11:00:30.053Z,15.50
2019-04-03T11:01:30.018Z,12.60
2019-04-03T11:02:30.016Z,19.70
2019-04-03T11:03:30.016Z,12.60
2019-04-03T11:04:30.016Z,11.40
2019-04-03T11:05:30.018Z,8.80
2019-04-03T11:06:30.159Z,10.70
2019-04-03T11:07:30.014Z,12.60
2019-04-03T11:08:30.331Z,12.00
2019-04-03T11:09:30.071Z,9.30
2019-04-03T11:10:30.034Z,11.80
2019-04-03T11:11:30.524Z,9.20
2019-04-03T11:12:31.716Z,10.60
2019-04-03T11:13:30.134Z,8.00
2019-04-03T11:14:30.008Z,9.50
2019-04-03T11:15:30.349Z,10.30
2019-04-03T11:16:30.005Z,8.20
2019-04-03T11:17:30.043Z,9.20
2019-04-03T11:18:30.231Z,8.20
2019-04-03T11:19:30.098Z,9.50
2019-04-03T11:20:30.001Z,7.10
2019-04-03T11:21:30.004Z,11.00
2019-04-03T11:22:39.756Z,8.10
2019-04-03T11:23:38.792Z,7.60
2019-04-03T11:24:30.019Z,9.50
2019-04-03T11:25:29.999Z,10.80
2019-04-03T11:26:30.119Z,8.00
2019-04-03T11:27:42.188Z,8.10
2019-04-03T11:28:30.039Z,7.80
2019-04-03T11:29:30.020Z,9.80
2019-04-03T11:30:29.993Z,7.00
2019-04-03T11:31:33.077Z,12.60
2019-04-03T11:32:29.989Z,9.20
2019-04-03T11:33:29.990Z,7.90
2019-04-03T11:34:30.035Z,7.60
2019-04-03T11:35:30.528Z,10.10
2019-04-03T11:36:30.821Z,9.00
2019-04-03T11:37:31.922Z,9.80
2019-04-03T11:38:30.053Z,8.70
2019-04-03T11:39:30.035Z,12.70
2019-04-03T11:40:30.064Z,14.00
2019-04-03T11:41:29.975Z,11.00
2019-04-03T11:42:30.186Z,8.30
2019-04-03T11:43:31.529Z,9.70
2019-04-03T11:44:29.972Z,8.20
2019-04-03T11:45:29.974Z,9.60
2019-04-03T11:46:29.971Z,6.80
2019-04-03T11:47:30.115Z,9.20
2019-04-03T11:48:29.962Z,8.30
2019-04-03T11:49:30.165Z,9.00
2019-04-03T11:50:29.997Z,11.10
2019-04-03T11:51:30.255Z,11.10
2019-04-03T11:52:29.969Z,8.70
2019-04-03T11:53:30.660Z,9.50
2019-04-03T11:54:29.961Z,11.40
2019-04-03T11:55:29.980Z,10.70
2019-04-03T11:56:29.997Z,8.50
2019-04-03T11:57:29.958Z,7.10
2019-04-03T11:58:29.954Z,10.20
2019-04-03T11:59:29.955Z,10.70
2019-04-03T12:00:30.119Z,7.30
2019-04-03T12:01:29.952Z,9.90
2019-04-03T12:02:29.948Z,7.90
2019-04-03T12:03:29.949Z,8.90
2019-04-03T12:04:30.185Z,8.10
2019-04-03T12:05:29.945Z,8.20
2019-04-03T12:06:29.950Z,7.60
2019-04-03T12:07:29.946Z,6.90
2019-04-03T12:08:30.304Z,7.00
2019-04-03T12:09:31.668Z,11.60
2019-04-03T12:10:29.940Z,7.30
2019-04-03T12:11:29.939Z,10.20
2019-04-03T12:12:29.947Z,10.00
2019-04-03T12:13:29.946Z,8.20
2019-04-03T12:14:29.945Z,8.50
2019-04-03T12:15:30.147Z,38.70
2019-04-03T12:16:30.152Z,10.90
2019-04-03T12:17:30.618Z,9.00
2019-04-03T12:18:33.082Z,19.30
2019-04-03T12:19:29.936Z,9.30
2019-04-03T12:20:29.935Z,12.70
2019-04-03T12:21:30.177Z,14.30
2019-04-03T12:22:29.925Z,7.40
2019-04-03T12:23:30.159Z,13.70
2019-04-03T12:24:29.928Z,11.80
2019-04-03T12:25:29.924Z,8.00
2019-04-03T12:26:29.925Z,7.20
2019-04-03T12:27:29.926Z,9.10
2019-04-03T12:28:29.919Z,6.50
2019-04-03T12:29:29.920Z,12.20
2019-04-03T12:30:29.924Z,9.00
2019-04-03T12:31:29.919Z,8.60
2019-04-03T12:32:37.062Z,8.10
2019-04-03T12:33:30.003Z,9.70
2019-04-03T12:34:29.956Z,10.00
2019-04-03T12:35:29.915Z,8.50
2019-04-03T12:36:30.223Z,7.50
2019-04-03T12:37:30.141Z,9.70
2019-04-03T12:38:29.911Z,8.90
2019-04-03T12:39:29.915Z,8.70
2019-04-03T12:40:32.414Z,13.60
2019-04-03T12:41:29.913Z,28.30
2019-04-03T12:42:29.982Z,14.60
2019-04-03T12:43:29.943Z,10.20
2019-04-03T12:44:29.994Z,12.80
2019-04-03T12:45:30.298Z,11.30
2019-04-03T12:46:32.726Z,10.10
2019-04-03T12:47:30.364Z,9.00
2019-04-03T12:48:29.909Z,8.10
2019-04-03T12:49:30.087Z,9.10
2019-04-03T12:50:29.953Z,11.10
2019-04-03T12:51:31.562Z,15.40
2019-04-03T12:52:29.909Z,9.70
2019-04-03T12:53:30.279Z,9.10
2019-04-03T12:54:30.225Z,10.40
2019-04-03T12:55:30.245Z,15.60
2019-04-03T12:56:30.911Z,7.50
2019-04-03T12:57:32.144Z,14.10
2019-04-03T12:58:30.097Z,9.20
2019-04-03T12:59:30.273Z,10.80
2019-04-03T13:00:29.926Z,10.70
2019-04-03T13:01:29.966Z,9.30
2019-04-03T13:02:30.125Z,9.20
2019-04-03T13:03:30.039Z,8.60
2019-04-03T13:04:31.216Z,12.50
2019-04-03T13:05:29.903Z,9.70
2019-04-03T13:06:30.266Z,10.90
2019-04-03T13:07:30.548Z,9.70
2019-04-03T13:08:30.540Z,10.20
2019-04-03T13:09:29.905Z,13.90
2019-04-03T13:10:40.201Z,9.70
2019-04-03T13:11:32.666Z,14.00
2019-04-03T13:12:30.233Z,11.50
2019-04-03T13:13:30.352Z,8.50
2019-04-03T13:14:30.221Z,12.10
2019-04-03T13:15:29.900Z,14.00
2019-04-03T13:16:29.992Z,9.90
2019-04-03T13:17:30.283Z,7.60
2019-04-03T13:18:30.002Z,9.80
2019-04-03T13:19:29.898Z,9.30
2019-04-03T13:20:29.991Z,9.10
2019-04-03T13:21:29.899Z,10.20
2019-04-03T13:22:29.959Z,10.60
2019-04-03T13:23:29.899Z,9.50
2019-04-03T13:24:30.313Z,10.00
2019-04-03T13:25:29.982Z,10.90
2019-04-03T13:26:29.892Z,13.00
2019-04-03T13:27:31.759Z,10.30
2019-04-03T13:28:29.891Z,10.40
2019-04-03T13:29:29.894Z,13.00
2019-04-03T13:30:29.955Z,12.90
2019-04-03T13:31:29.897Z,12.30
2019-04-03T13:32:29.896Z,11.40
2019-04-03T13:33:29.893Z,12.60
2019-04-03T13:34:31.849Z,12.40
2019-04-03T13:35:29.896Z,12.80
2019-04-03T13:36:29.908Z,10.70
2019-04-03T13:37:29.890Z,12.20
2019-04-03T13:38:30.112Z,10.00
2019-04-03T13:39:30.925Z,11.70
2019-04-03T13:40:29.944Z,10.80
2019-04-03T13:41:30.126Z,9.80
2019-04-03T13:42:31.342Z,11.20
2019-04-03T13:43:29.895Z,10.70
2019-04-03T13:44:29.883Z,12.60
2019-04-03T13:45:31.070Z,13.00
2019-04-03T13:46:29.940Z,10.60
2019-04-03T13:47:29.886Z,10.60
2019-04-03T13:48:29.880Z,12.40
2019-04-03T13:49:30.849Z,14.70
2019-04-03T13:50:29.878Z,12.20
2019-04-03T13:51:29.879Z,12.80
2019-04-03T13:52:40.245Z,11.40
2019-04-03T13:53:29.877Z,11.50
2019-04-03T13:54:29.875Z,12.40
2019-04-03T13:55:33.759Z,12.10
2019-04-03T13:56:29.875Z,9.90
2019-04-03T13:57:29.874Z,11.10
2019-04-03T13:58:29.872Z,10.90
2019-04-03T13:59:29.871Z,10.30
2019-04-03T14:00:32.105Z,14.00
2019-04-03T14:01:30.050Z,11.30
2019-04-03T14:02:29.869Z,13.90
2019-04-03T14:03:29.893Z,10.30
2019-04-03T14:04:30.135Z,9.20
2019-04-03T14:05:32.862Z,9.50
2019-04-03T14:06:29.866Z,8.90
2019-04-03T14:07:31.501Z,10.00
2019-04-03T14:08:29.877Z,9.20
2019-04-03T14:09:29.865Z,7.40
2019-04-03T14:10:29.865Z,9.10
2019-04-03T14:11:30.897Z,8.00
2019-04-03T14:12:29.865Z,9.20
2019-04-03T14:13:29.863Z,10.30
2019-04-03T14:14:29.859Z,7.60
2019-04-03T14:15:29.983Z,8.30
2019-04-03T14:16:30.091Z,9.50
2019-04-03T14:17:29.859Z,7.80
2019-04-03T14:18:29.858Z,9.50
2019-04-03T14:19:41.836Z,10.60
2019-04-03T14:20:29.891Z,7.60
2019-04-03T14:21:29.855Z,7.20
2019-04-03T14:22:31.133Z,8.20
2019-04-03T14:23:29.852Z,8.40
2019-04-03T14:24:38.517Z,9.60
2019-04-03T14:25:36.162Z,7.30
2019-04-03T14:26:29.848Z,9.50
2019-04-03T14:27:31.246Z,10.00
2019-04-03T14:28:30.026Z,7.40
2019-04-03T14:29:30.255Z,6.10